Time;durP1;ratioP1;P1;durP2;ratioP2;P2;SDS_P1;SDS_P2;PMS_P1;PMS_P2;Temp;Humidity;BMP_temperature;BMP_pressure;BME280_temperature;BME280_humidity;BME280_pressure;Samples;Min_cycle;Max_cycle;Signal;HPM_P1;HPM_P2
2021/09/20 00:01:58;;;;;;;6.15;3.70;;;;;;;11.92;76.26;97381.25;1741492;81;21399;-77
2021/09/20 00:04:25;;;;;;;4.67;3.62;;;;;;;11.87;76.17;97384.97;1753081;82;21073;-77
2021/09/20 00:06:51;;;;;;;6.42;3.65;;;;;;;11.81;76.06;97389.23;1760076;79;21017;-77
2021/09/20 00:09:18;;;;;;;5.95;3.95;;;;;;;11.77;76.22;97385.44;1753311;82;21431;-76
2021/09/20 00:11:44;;;;;;;4.20;3.40;;;;;;;11.74;75.99;97375.37;1764741;81;20987;-76
2021/09/20 00:14:11;;;;;;;9.33;3.62;;;;;;;11.69;76.46;97376.48;1779317;80;21070;-77
2021/09/20 00:16:37;;;;;;;4.87;3.90;;;;;;;11.67;77.25;97379.69;1779348;80;21015;-76
2021/09/20 00:19:04;;;;;;;4.35;3.45;;;;;;;11.62;76.98;97375.89;1770267;80;20986;-76
2021/09/20 00:21:30;;;;;;;5.35;3.60;;;;;;;11.64;76.53;97388.66;1740041;82;20992;-77
2021/09/20 00:23:57;;;;;;;5.60;3.83;;;;;;;11.63;76.72;97385.61;1767664;81;20990;-77
2021/09/20 00:26:23;;;;;;;5.12;3.72;;;;;;;11.60;77.21;97383.08;1779088;81;21410;-77
2021/09/20 00:28:50;;;;;;;5.33;3.77;;;;;;;11.57;77.06;97385.84;1779322;80;21017;-77
2021/09/20 00:31:17;;;;;;;4.85;3.15;;;;;;;11.53;76.83;97376.29;1778561;81;20942;-77
2021/09/20 00:33:43;;;;;;;6.55;3.67;;;;;;;11.53;77.26;97380.27;1779028;80;20988;-77
2021/09/20 00:36:12;;;;;;;4.62;3.37;;;;;;;11.53;77.13;97372.31;1771829;80;20974;-77
2021/09/20 00:38:39;;;;;;;6.03;3.98;;;;;;;11.52;77.16;97371.47;1753277;82;21006;-76
2021/09/20 00:41:05;;;;;;;6.45;3.80;;;;;;;11.49;77.55;97375.12;1756606;80;21021;-77
2021/09/20 00:43:32;;;;;;;6.42;3.98;;;;;;;11.45;78.29;97368.66;1768861;80;21006;-77
2021/09/20 00:45:59;;;;;;;4.97;3.62;;;;;;;11.38;78.14;97361.44;1742649;82;21056;-77
2021/09/20 00:48:25;;;;;;;5.12;3.72;;;;;;;11.37;78.39;97366.83;1732556;81;22113;-77
2021/09/20 00:50:56;;;;;;;4.78;3.92;;;;;;;11.31;78.82;97371.92;1748268;81;21026;-76
2021/09/20 00:53:25;;;;;;;4.78;3.65;;;;;;;11.28;79.08;97374.69;1762580;81;20992;-76
2021/09/20 00:55:52;;;;;;;6.58;4.20;;;;;;;11.24;78.71;97368.66;1777198;80;21031;-77
2021/09/20 00:58:19;;;;;;;5.65;4.28;;;;;;;11.24;79.98;97367.83;1756426;80;21395;-76
2021/09/20 01:00:46;;;;;;;5.60;3.90;;;;;;;11.22;79.37;97370.05;1759606;80;21045;-77
2021/09/20 01:03:13;;;;;;;4.50;3.60;;;;;;;11.19;79.00;97367.55;1771300;80;21014;-76
2021/09/20 01:05:39;;;;;;;5.85;3.92;;;;;;;11.19;79.68;97366.22;1766824;81;20985;-77
2021/09/20 01:08:06;;;;;;;7.05;3.80;;;;;;;11.17;79.98;97363.23;1775407;80;21461;-77
2021/09/20 01:10:32;;;;;;;6.22;3.70;;;;;;;11.16;78.92;97365.47;1762955;80;21097;-77
2021/09/20 01:12:59;;;;;;;5.42;4.00;;;;;;;11.16;79.49;97362.81;1748929;80;21004;-77
2021/09/20 01:15:25;;;;;;;6.12;3.75;;;;;;;11.09;80.58;97368.38;1779000;80;21496;-77
2021/09/20 01:17:52;;;;;;;4.67;3.40;;;;;;;11.09;79.32;97367.06;1779177;80;21036;-76
2021/09/20 01:20:19;;;;;;;5.25;3.62;;;;;;;11.10;78.99;97365.28;1779218;80;20980;-77
2021/09/20 01:22:50;;;;;;;5.05;3.70;;;;;;;11.15;79.05;97365.95;1778851;81;21056;-77
2021/09/20 01:25:17;;;;;;;4.20;3.33;;;;;;;11.20;79.03;97367.94;1722071;83;21066;-77
2021/09/20 01:27:46;;;;;;;5.85;3.62;;;;;;;11.23;78.64;97362.97;1761810;80;21098;-76
2021/09/20 01:30:13;;;;;;;5.50;3.50;;;;;;;11.27;78.69;97362.36;1778711;80;21423;-77
2021/09/20 01:32:39;;;;;;;4.35;3.27;;;;;;;11.33;78.57;97362.09;1745079;82;20978;-77
2021/09/20 01:35:08;;;;;;;5.83;3.60;;;;;;;11.40;78.49;97363.58;1744401;80;21043;-77
2021/09/20 01:37:35;;;;;;;5.45;3.92;;;;;;;11.42;78.49;97364.36;1747873;82;21034;-77
2021/09/20 01:40:04;;;;;;;4.60;3.22;;;;;;;11.45;78.63;97369.54;1743529;81;21085;-77
2021/09/20 01:42:30;;;;;;;4.97;3.12;;;;;;;11.47;78.96;97369.00;1741981;82;21333;-77
2021/09/20 01:44:57;;;;;;;5.47;3.77;;;;;;;11.53;78.90;97361.24;1741902;82;21478;-77
2021/09/20 01:47:25;;;;;;;4.55;3.33;;;;;;;11.58;79.04;97357.05;1747929;81;20980;-77
2021/09/20 01:49:53;;;;;;;4.25;2.85;;;;;;;11.61;79.17;97355.14;1778948;81;21012;-77
2021/09/20 01:52:19;;;;;;;5.00;3.33;;;;;;;11.64;79.22;97358.58;1779093;80;20972;-77
2021/09/20 01:54:46;;;;;;;6.58;3.80;;;;;;;11.66;79.20;97360.72;1777904;81;21024;-77
2021/09/20 01:57:12;;;;;;;5.65;3.60;;;;;;;11.68;79.23;97354.87;1751035;80;21012;-77
2021/09/20 01:59:39;;;;;;;4.55;3.50;;;;;;;11.71;79.11;97358.23;1726979;81;21039;-77
2021/09/20 02:02:05;;;;;;;9.40;3.80;;;;;;;11.69;79.12;97353.47;1729006;82;21039;-77
2021/09/20 02:04:32;;;;;;;5.72;3.72;;;;;;;11.70;78.99;97351.66;1705395;83;21036;-76
2021/09/20 02:06:59;;;;;;;4.78;3.47;;;;;;;11.71;78.93;97350.76;1705439;83;21080;-77
2021/09/20 02:09:26;;;;;;;6.33;3.77;;;;;;;11.68;78.90;97347.78;1748400;81;21027;-77
2021/09/20 02:11:54;;;;;;;5.03;3.72;;;;;;;11.70;78.87;97349.88;1765061;81;20969;-77
2021/09/20 02:14:22;;;;;;;5.60;4.10;;;;;;;11.71;78.88;97355.58;1764988;81;21480;-77
2021/09/20 02:16:50;;;;;;;5.17;3.70;;;;;;;11.70;78.84;97355.19;1764993;81;21398;-78
2021/09/20 02:19:16;;;;;;;5.78;4.03;;;;;;;11.70;78.49;97363.16;1745535;81;21385;-78
2021/09/20 02:21:45;;;;;;;5.15;3.92;;;;;;;11.67;78.46;97358.45;1734787;82;20976;-77
2021/09/20 02:24:12;;;;;;;5.80;4.12;;;;;;;11.61;78.45;97351.16;1728200;81;21428;-78
2021/09/20 02:26:38;;;;;;;5.78;3.75;;;;;;;11.56;78.59;97358.47;1714421;82;20976;-77
2021/09/20 02:29:07;;;;;;;5.97;3.90;;;;;;;11.51;78.18;97353.83;1716003;82;21023;-77
2021/09/20 02:31:34;;;;;;;7.20;4.78;;;;;;;11.45;78.72;97353.63;1746552;81;20968;-78
2021/09/20 02:34:00;;;;;;;5.83;4.37;;;;;;;11.43;79.31;97348.86;1765088;81;21355;-78
2021/09/20 02:36:27;;;;;;;5.00;3.80;;;;;;;11.42;78.68;97352.90;1712510;81;20976;-77
2021/09/20 02:38:53;;;;;;;5.42;4.05;;;;;;;11.40;80.42;97352.95;1720830;81;21031;-77
2021/09/20 02:41:20;;;;;;;7.22;4.30;;;;;;;11.35;79.46;97353.14;1764924;80;21004;-77
2021/09/20 02:43:46;;;;;;;7.08;4.30;;;;;;;11.33;79.88;97347.50;1765077;81;21028;-77
2021/09/20 02:46:13;;;;;;;6.00;3.80;;;;;;;11.33;79.62;97347.50;1764817;81;20988;-77
2021/09/20 02:48:39;;;;;;;8.80;4.30;;;;;;;11.34;79.06;97343.95;1756939;81;21147;-77
2021/09/20 02:51:06;;;;;;;6.30;4.22;;;;;;;11.35;79.08;97339.03;1714373;83;21082;-77
2021/09/20 02:53:32;;;;;;;6.05;4.30;;;;;;;11.34;79.04;97340.81;1733151;83;21000;-77
2021/09/20 02:55:59;;;;;;;7.15;4.90;;;;;;;11.34;78.85;97343.47;1739259;81;21066;-77
2021/09/20 02:58:25;;;;;;;6.97;4.67;;;;;;;11.35;78.66;97349.16;1774775;81;21034;-77
2021/09/20 03:00:52;;;;;;;5.87;4.30;;;;;;;11.33;78.65;97347.05;1754418;81;21040;-77
2021/09/20 03:03:18;;;;;;;6.25;4.92;;;;;;;11.33;78.97;97347.50;1744544;82;21002;-77
2021/09/20 03:05:45;;;;;;;5.55;4.03;;;;;;;11.34;78.69;97346.12;1744857;82;22270;-77
2021/09/20 03:08:12;;;;;;;5.92;3.80;;;;;;;11.32;79.43;97344.46;1744802;81;21002;-77
2021/09/20 03:10:38;;;;;;;4.28;3.70;;;;;;;11.31;79.55;97344.07;1744467;82;20966;-77
2021/09/20 03:13:05;;;;;;;7.40;4.08;;;;;;;11.32;79.21;97345.34;1747923;81;21394;-77
2021/09/20 03:15:32;;;;;;;5.67;4.50;;;;;;;11.31;79.26;97341.41;1715450;82;20991;-77
2021/09/20 03:17:59;;;;;;;7.42;4.25;;;;;;;11.29;79.24;97347.27;1744854;82;21007;-78
2021/09/20 03:20:26;;;;;;;5.33;3.47;;;;;;;11.26;79.22;97345.61;1744670;82;21073;-77
2021/09/20 03:22:52;;;;;;;5.80;4.17;;;;;;;11.24;79.37;97342.63;1725902;82;21432;-77
2021/09/20 03:25:20;;;;;;;8.18;4.50;;;;;;;11.22;79.36;97343.52;1744895;81;20979;-77
2021/09/20 03:27:47;;;;;;;19.77;12.95;;;;;;;11.23;79.90;97345.73;1747140;81;21352;-78
2021/09/20 03:30:15;;;;;;;27.10;15.43;;;;;;;11.22;79.43;97346.17;1773156;81;20982;-78
2021/09/20 03:32:42;;;;;;;12.05;7.40;;;;;;;11.20;79.96;97343.20;1749926;82;21013;-78
2021/09/20 03:35:12;;;;;;;7.42;5.10;;;;;;;11.16;80.31;97346.90;1733269;83;21009;-77
2021/09/20 03:37:38;;;;;;;7.35;4.85;;;;;;;11.17;79.91;97344.67;1751230;81;20984;-77
2021/09/20 03:40:06;;;;;;;7.70;4.20;;;;;;;11.13;80.00;97351.88;1731502;80;21478;-77
2021/09/20 03:42:33;;;;;;;5.37;3.98;;;;;;;11.12;80.65;97359.92;1717218;83;21004;-77
2021/09/20 03:44:59;;;;;;;6.58;4.15;;;;;;;11.12;81.28;97350.16;1726941;82;21427;-77
2021/09/20 03:47:26;;;;;;;5.87;4.03;;;;;;;11.13;80.35;97349.22;1744549;82;21062;-77
2021/09/20 03:49:52;;;;;;;6.37;4.42;;;;;;;11.09;80.79;97347.65;1752985;81;21308;-78
2021/09/20 03:52:19;;;;;;;6.53;3.80;;;;;;;11.06;80.50;97357.05;1743342;80;20979;-77
2021/09/20 03:54:45;;;;;;;5.75;4.00;;;;;;;11.06;80.59;97359.25;1744185;82;21045;-75
2021/09/20 03:57:11;;;;;;;6.65;4.55;;;;;;;11.08;80.68;97352.53;1762464;81;20987;-75
2021/09/20 03:59:38;;;;;;;6.58;3.80;;;;;;;11.10;80.50;97356.00;1750304;81;21097;-75
2021/09/20 04:02:04;;;;;;;5.08;3.77;;;;;;;11.12;80.57;97355.94;1752636;81;21004;-76
2021/09/20 04:04:31;;;;;;;6.62;3.50;;;;;;;11.14;80.49;97356.27;1733943;80;21465;-75
2021/09/20 04:07:03;;;;;;;4.33;3.15;;;;;;;11.17;80.55;97349.98;1739888;82;21463;-76
2021/09/20 04:09:28;;;;;;;5.15;3.80;;;;;;;11.19;80.67;97351.63;1745157;81;21007;-77
2021/09/20 04:11:54;;;;;;;5.15;3.80;;;;;;;11.21;80.21;97362.16;1764433;80;20989;-75
2021/09/20 04:14:21;;;;;;;6.95;4.70;;;;;;;11.18;80.04;97368.94;1763759;81;21012;-78
2021/09/20 04:16:48;;;;;;;5.60;4.15;;;;;;;11.18;79.80;97372.42;1764234;81;20981;-77
2021/09/20 04:19:14;;;;;;;6.70;4.33;;;;;;;11.17;79.96;97377.34;1764432;81;20969;-77
2021/09/20 04:21:41;;;;;;;6.60;3.62;;;;;;;11.18;79.94;97377.73;1745056;81;21088;-76
2021/09/20 04:24:07;;;;;;;6.78;4.10;;;;;;;11.13;79.45;97375.73;1729076;82;20994;-78
2021/09/20 04:26:34;;;;;;;7.30;4.22;;;;;;;11.11;79.39;97378.05;1742796;81;20959;-77
2021/09/20 04:29:00;;;;;;;8.95;4.30;;;;;;;11.05;79.16;97380.52;1752281;81;21096;-77
2021/09/20 04:31:30;;;;;;;6.17;4.22;;;;;;;10.95;79.18;97378.25;1756380;80;21029;-78
2021/09/20 04:33:56;;;;;;;8.68;4.70;;;;;;;10.86;79.33;97365.81;1757897;81;21411;-77
2021/09/20 04:36:23;;;;;;;6.15;4.10;;;;;;;10.76;79.46;97374.62;1759774;81;21029;-79
2021/09/20 04:38:51;;;;;;;7.15;4.58;;;;;;;10.66;79.58;97370.14;1746657;81;20997;-77
2021/09/20 04:41:19;;;;;;;6.75;4.72;;;;;;;10.60;79.58;97379.21;1756774;81;21078;-78
2021/09/20 04:43:45;;;;;;;6.42;4.55;;;;;;;10.55;79.96;97371.43;1757855;81;21006;-78
2021/09/20 04:46:14;;;;;;;6.80;4.85;;;;;;;10.48;80.23;97377.03;1749528;81;21017;-78
2021/09/20 04:48:42;;;;;;;6.75;4.50;;;;;;;10.46;79.74;97380.22;1758561;81;21567;-78
2021/09/20 04:51:09;;;;;;;6.72;4.75;;;;;;;10.41;81.17;97376.38;1753964;80;20973;-78
2021/09/20 04:53:35;;;;;;;11.53;4.70;;;;;;;10.39;80.03;97372.45;1753401;81;21045;-77
2021/09/20 04:56:02;;;;;;;8.18;5.03;;;;;;;10.40;80.28;97377.30;1734590;80;21445;-77
2021/09/20 04:58:28;;;;;;;7.35;4.70;;;;;;;10.37;80.92;97380.94;1730664;81;21030;-76
2021/09/20 05:00:56;;;;;;;7.78;4.58;;;;;;;10.35;81.42;97396.03;1759232;81;20982;-77
2021/09/20 05:03:22;;;;;;;6.92;4.53;;;;;;;10.37;80.44;97398.60;1765041;81;20983;-80
2021/09/20 05:05:49;;;;;;;6.42;4.58;;;;;;;10.36;80.42;97398.20;1777757;81;20991;-77
2021/09/20 05:08:17;;;;;;;6.47;4.30;;;;;;;10.36;80.45;97396.43;1777837;81;21026;-78
2021/09/20 05:10:44;;;;;;;6.80;4.33;;;;;;;10.34;81.27;97400.06;1772581;81;21030;-78
2021/09/20 05:13:11;;;;;;;8.48;4.50;;;;;;;10.30;82.33;97394.87;1747162;82;21042;-78
2021/09/20 05:15:38;;;;;;;7.47;4.37;;;;;;;10.31;82.30;97401.05;1746730;82;20967;-77
2021/09/20 05:18:04;;;;;;;9.18;4.42;;;;;;;10.33;81.82;97397.02;1745985;81;21045;-77
2021/09/20 05:20:31;;;;;;;6.85;4.25;;;;;;;10.35;81.20;97400.01;1742931;81;21123;-77
2021/09/20 05:22:57;;;;;;;6.08;4.05;;;;;;;10.37;81.89;97407.42;1740043;81;20971;-76
2021/09/20 05:25:23;;;;;;;6.60;4.58;;;;;;;10.32;82.41;97408.06;1742100;80;21509;-77
2021/09/20 05:27:51;;;;;;;8.83;4.70;;;;;;;10.32;82.18;97409.39;1750928;81;21021;-76
2021/09/20 05:30:20;;;;;;;8.05;4.58;;;;;;;10.35;82.23;97415.03;1756742;81;20963;-76
2021/09/20 05:32:47;;;;;;;9.90;4.12;;;;;;;10.35;81.57;97413.25;1762860;81;20986;-76
2021/09/20 05:35:15;;;;;;;6.53;4.87;;;;;;;10.38;82.19;97411.80;1760481;81;21005;-76
2021/09/20 05:37:46;;;;;;;6.62;4.72;;;;;;;10.40;81.74;97410.41;1763086;81;21014;-76
2021/09/20 05:40:13;;;;;;;6.47;4.30;;;;;;;10.41;81.87;97410.36;1763824;81;21463;-77
2021/09/20 05:42:41;;;;;;;8.68;4.58;;;;;;;10.43;81.76;97407.21;1728939;81;21025;-77
2021/09/20 05:45:09;;;;;;;6.92;4.58;;;;;;;10.49;81.79;97408.77;1771916;81;20990;-78
2021/09/20 05:47:37;;;;;;;10.23;5.10;;;;;;;10.53;81.66;97414.36;1776903;80;21089;-77
2021/09/20 05:50:07;;;;;;;7.80;4.90;;;;;;;10.63;82.03;97411.35;1776735;81;21025;-78
2021/09/20 05:52:34;;;;;;;8.00;4.70;;;;;;;10.72;81.48;97413.64;1747635;81;20970;-77
2021/09/20 05:55:00;;;;;;;7.35;5.30;;;;;;;10.82;81.08;97413.67;1739054;80;20983;-77
2021/09/20 05:57:27;;;;;;;31.73;16.40;;;;;;;10.91;81.37;97419.06;1716313;82;21034;-76
2021/09/20 05:59:53;;;;;;;9.13;5.65;;;;;;;11.01;81.50;97414.71;1720710;83;21438;-77
2021/09/20 06:02:26;;;;;;;6.62;4.30;;;;;;;11.08;80.75;97409.55;1707837;84;21018;-77
2021/09/20 06:04:55;;;;;;;6.70;4.30;;;;;;;11.17;80.62;97412.30;1724213;81;21306;-77
2021/09/20 06:07:21;;;;;;;7.72;4.22;;;;;;;11.28;80.35;97421.12;1748409;81;21015;-78
2021/09/20 06:09:48;;;;;;;6.55;3.75;;;;;;;11.35;80.30;97416.81;1729053;82;21577;-77
2021/09/20 06:12:14;;;;;;;8.00;3.95;;;;;;;11.45;80.44;97423.94;1742679;82;21045;-77
2021/09/20 06:14:43;;;;;;;7.10;4.00;;;;;;;11.59;80.40;97418.03;1740668;81;21046;-78
2021/09/20 06:17:09;;;;;;;6.28;4.20;;;;;;;11.73;80.00;97412.59;1731849;81;20992;-77
2021/09/20 06:19:35;;;;;;;5.95;4.83;;;;;;;11.80;79.09;97409.20;1736494;82;21615;-77
2021/09/20 06:22:02;;;;;;;4.87;3.77;;;;;;;11.92;79.56;97408.65;1734405;81;21010;-76
2021/09/20 06:24:29;;;;;;;8.05;3.98;;;;;;;12.02;79.27;97406.45;1743923;81;21042;-76
2021/09/20 06:26:56;;;;;;;7.90;4.33;;;;;;;12.17;79.26;97404.07;1743139;81;21503;-76
2021/09/20 06:29:23;;;;;;;9.00;6.08;;;;;;;12.27;79.03;97406.25;1744175;82;20994;-77
2021/09/20 06:31:49;;;;;;;7.85;4.83;;;;;;;12.35;78.39;97402.36;1744222;82;21479;-77
2021/09/20 06:34:16;;;;;;;5.90;4.03;;;;;;;12.40;78.35;97397.23;1748514;81;21037;-76
2021/09/20 06:36:42;;;;;;;6.05;4.78;;;;;;;12.50;77.95;97402.13;1754174;81;21012;-77
2021/09/20 06:39:10;;;;;;;7.15;4.58;;;;;;;12.52;78.03;97393.14;1751860;81;21380;-77
2021/09/20 06:41:36;;;;;;;7.28;4.78;;;;;;;12.58;77.93;97386.66;1743536;81;21097;-79
2021/09/20 06:44:03;;;;;;;5.50;4.37;;;;;;;12.64;77.67;97394.36;1754150;81;21007;-77
2021/09/20 06:46:32;;;;;;;7.28;4.55;;;;;;;12.70;76.91;97385.20;1764429;80;21062;-78
2021/09/20 06:48:58;;;;;;;7.12;4.33;;;;;;;12.78;76.91;97388.82;1763231;81;21400;-78
2021/09/20 06:51:26;;;;;;;6.95;4.40;;;;;;;12.80;75.82;97391.80;1753968;81;20984;-76
2021/09/20 06:53:53;;;;;;;5.70;4.35;;;;;;;12.80;76.14;97394.45;1755863;81;20979;-78
2021/09/20 06:56:20;;;;;;;6.95;4.33;;;;;;;12.83;74.32;97401.91;1775172;81;21038;-78
2021/09/20 06:58:46;;;;;;;5.58;3.72;;;;;;;12.78;71.91;97407.44;1777685;81;21034;-77
2021/09/20 07:01:14;;;;;;;4.60;3.65;;;;;;;12.73;71.55;97407.67;1778078;81;21006;-78
2021/09/20 07:03:41;;;;;;;5.22;3.30;;;;;;;12.67;70.22;97406.64;1763493;80;21061;-79
2021/09/20 07:06:07;;;;;;;5.33;3.60;;;;;;;12.75;72.95;97423.55;1745473;81;21059;-77
2021/09/20 07:08:35;;;;;;;7.97;3.75;;;;;;;12.85;73.19;97414.66;1729350;82;20981;-76
2021/09/20 07:11:01;;;;;;;6.03;3.55;;;;;;;12.90;70.62;97420.16;1734569;82;21026;-77
2021/09/20 07:13:28;;;;;;;5.10;3.90;;;;;;;12.86;70.44;97423.02;1747045;82;21435;-75
2021/09/20 07:15:54;;;;;;;4.72;3.10;;;;;;;12.93;72.12;97429.78;1747344;82;21030;-75
2021/09/20 07:18:21;;;;;;;3.35;2.67;;;;;;;13.01;70.04;97421.43;1739551;81;21016;-76
2021/09/20 07:20:48;;;;;;;3.77;2.75;;;;;;;13.05;70.16;97421.19;1783329;80;20950;-76
2021/09/20 07:23:14;;;;;;;4.87;3.22;;;;;;;13.20;69.51;97419.59;1782536;80;21364;-76
2021/09/20 07:25:40;;;;;;;5.10;3.10;;;;;;;13.28;69.23;97418.33;1769665;81;21010;-77
2021/09/20 07:28:09;;;;;;;3.75;3.00;;;;;;;13.38;68.42;97419.62;1743795;81;21430;-76
2021/09/20 07:30:38;;;;;;;4.05;3.20;;;;;;;13.49;66.42;97412.92;1741532;81;21058;-75
2021/09/20 07:33:04;;;;;;;4.78;3.20;;;;;;;13.59;68.85;97405.69;1717046;83;21067;-75
2021/09/20 07:35:30;;;;;;;4.58;3.33;;;;;;;13.65;67.39;97411.18;1737329;81;21007;-75
2021/09/20 07:37:57;;;;;;;4.08;3.10;;;;;;;13.67;68.14;97415.94;1746496;82;21077;-75
2021/09/20 07:40:27;;;;;;;4.60;3.30;;;;;;;13.67;66.17;97412.44;1752600;81;21049;-75
2021/09/20 07:42:56;;;;;;;5.95;3.55;;;;;;;13.53;66.08;97418.48;1760211;81;21033;-75
2021/09/20 07:45:23;;;;;;;5.15;3.60;;;;;;;13.41;66.46;97414.61;1758188;80;21010;-74
2021/09/20 07:47:50;;;;;;;6.70;3.60;;;;;;;13.44;67.85;97416.64;1735456;81;20994;-76
2021/09/20 07:50:18;;;;;;;6.22;3.60;;;;;;;13.52;68.02;97420.27;1742137;81;20983;-75
2021/09/20 07:52:46;;;;;;;4.53;3.50;;;;;;;13.62;68.22;97419.80;1710479;82;21432;-75
2021/09/20 07:55:16;;;;;;;6.17;3.98;;;;;;;13.69;68.32;97408.75;1728723;82;21033;-74
2021/09/20 07:57:45;;;;;;;5.60;3.72;;;;;;;13.73;67.90;97406.78;1717441;81;21076;-76
2021/09/20 08:00:13;;;;;;;5.30;3.20;;;;;;;13.76;68.02;97407.09;1719059;82;21058;-76
2021/09/20 08:02:44;;;;;;;4.28;3.47;;;;;;;13.74;67.78;97409.83;1743390;82;20998;-76
2021/09/20 08:05:14;;;;;;;5.33;3.80;;;;;;;13.60;67.25;97405.23;1743471;82;21042;-76
2021/09/20 08:07:42;;;;;;;5.33;3.50;;;;;;;13.60;67.96;97403.91;1743495;82;20990;-76
2021/09/20 08:10:12;;;;;;;4.12;2.98;;;;;;;13.62;66.62;97405.16;1732100;82;21009;-77
2021/09/20 08:12:38;;;;;;;5.47;3.35;;;;;;;13.67;67.83;97415.94;1742298;81;21027;-76
2021/09/20 08:15:09;;;;;;;4.90;3.22;;;;;;;13.73;67.78;97410.32;1764011;81;21055;-76
2021/09/20 08:17:40;;;;;;;4.37;3.47;;;;;;;13.86;68.04;97413.20;1763356;81;20981;-77
2021/09/20 08:20:09;;;;;;;5.78;3.25;;;;;;;13.99;67.11;97416.53;1763738;80;21040;-76
2021/09/20 08:22:38;;;;;;;4.97;3.75;;;;;;;13.96;65.74;97410.06;1744830;80;22196;-77
2021/09/20 08:25:11;;;;;;;4.72;3.50;;;;;;;13.96;66.16;97411.39;1737651;81;20991;-77
2021/09/20 08:27:38;;;;;;;4.75;3.52;;;;;;;14.02;66.49;97409.72;1747926;81;21065;-75
2021/09/20 08:30:06;;;;;;;5.47;3.42;;;;;;;14.15;66.37;97408.59;1743596;82;21502;-76
2021/09/20 08:32:33;;;;;;;4.62;3.27;;;;;;;14.25;66.70;97399.16;1743381;82;21482;-76
2021/09/20 08:34:59;;;;;;;4.85;3.62;;;;;;;14.41;66.70;97394.80;1759378;81;21379;-77
2021/09/20 08:37:28;;;;;;;4.90;3.33;;;;;;;14.53;64.88;97396.78;1763527;81;21460;-76
2021/09/20 08:39:54;;;;;;;6.65;4.00;;;;;;;14.46;63.59;97393.62;1764053;80;21008;-77
2021/09/20 08:42:21;;;;;;;5.37;3.25;;;;;;;14.38;64.18;97398.50;1763713;81;21083;-76
2021/09/20 08:44:50;;;;;;;5.33;3.40;;;;;;;14.42;63.55;97396.52;1758678;81;21007;-76
2021/09/20 08:47:18;;;;;;;4.25;3.47;;;;;;;14.48;64.38;97400.17;1724002;81;21086;-76
2021/09/20 08:49:45;;;;;;;5.85;3.00;;;;;;;14.57;64.37;97402.83;1725759;83;21018;-77
2021/09/20 08:52:12;;;;;;;4.92;2.75;;;;;;;14.67;64.69;97399.16;1739592;82;21446;-76
2021/09/20 08:54:39;;;;;;;4.42;2.83;;;;;;;14.76;64.78;97396.01;1742877;81;20972;-76
2021/09/20 08:57:08;;;;;;;3.55;2.40;;;;;;;14.83;62.86;97391.19;1737639;82;21137;-76
2021/09/20 08:59:35;;;;;;;4.20;2.65;;;;;;;14.88;64.25;97394.00;1745316;82;21077;-77
2021/09/20 09:02:03;;;;;;;4.15;2.98;;;;;;;14.88;64.12;97392.66;1746167;82;21010;-76
2021/09/20 09:04:39;;;;;;;2.80;2.47;;;;;;;14.87;63.46;97390.08;1746092;81;21050;-76
2021/09/20 09:07:13;;;;;;;3.37;2.80;;;;;;;14.96;64.00;97390.02;1743532;82;21077;-77
2021/09/20 09:09:50;;;;;;;3.87;2.50;;;;;;;15.08;63.32;97386.66;1716700;83;21061;-78
2021/09/20 09:12:23;;;;;;;4.20;2.65;;;;;;;15.14;62.07;97382.75;1721114;81;21094;-78
2021/09/20 09:14:58;;;;;;;3.47;2.25;;;;;;;15.03;60.27;97386.91;1735474;82;21412;-77
2021/09/20 09:17:29;;;;;;;4.15;2.80;;;;;;;14.86;59.56;97395.88;1747970;81;20967;-78
2021/09/20 09:20:15;;;;;;;7.15;3.35;;;;;;;14.87;61.13;97393.58;1746291;82;21029;-77
2021/09/20 09:22:52;;;;;;;5.05;2.58;;;;;;;14.98;60.24;97388.10;1761829;81;21010;-79
2021/09/20 09:25:47;;;;;;;3.20;2.50;;;;;;;15.14;61.18;97391.63;1716943;83;21018;-77
2021/09/20 09:28:21;;;;;;;3.30;2.40;;;;;;;15.30;60.99;97384.05;1728409;80;21020;-78
2021/09/20 09:30:53;;;;;;;4.20;2.20;;;;;;;15.37;58.79;97389.41;1749773;82;21430;-78
2021/09/20 09:33:24;;;;;;;2.22;1.90;;;;;;;15.63;59.74;97387.02;1754487;81;21450;-77
2021/09/20 09:35:55;;;;;;;3.15;2.10;;;;;;;15.71;56.20;97382.05;1755750;82;21040;-77
2021/09/20 09:38:22;;;;;;;2.45;2.08;;;;;;;15.67;57.11;97385.88;1728946;81;21050;-76
2021/09/20 09:40:57;;;;;;;3.37;2.20;;;;;;;15.86;58.67;97381.23;1724907;82;20987;-76
2021/09/20 09:43:41;;;;;;;2.67;2.10;;;;;;;15.97;58.23;97382.78;1738034;82;21364;-77
2021/09/20 09:46:24;;;;;;;2.85;2.17;;;;;;;15.98;57.17;97381.83;1737949;82;21038;-77
2021/09/20 09:48:55;;;;;;;2.02;1.87;;;;;;;16.00;57.65;97376.39;1738153;81;21705;-77
2021/09/20 09:51:22;;;;;;;2.42;1.85;;;;;;;16.08;57.35;97375.45;1750982;81;21444;-77
2021/09/20 09:53:50;;;;;;;2.52;1.60;;;;;;;16.00;56.08;97379.94;1737355;82;21077;-77
2021/09/20 09:56:21;;;;;;;2.27;1.40;;;;;;;15.95;54.03;97379.36;1750630;81;20975;-77
2021/09/20 09:59:05;;;;;;;2.83;1.77;;;;;;;15.89;55.29;97373.00;1733389;81;21035;-78
2021/09/20 10:01:39;;;;;;;1.98;1.60;;;;;;;15.84;56.50;97369.29;1727334;81;21027;-77
2021/09/20 10:04:30;;;;;;;;;;;;;;;15.84;57.00;97362.15;1726369;83;21004;-78
2021/09/20 10:06:49;;;;;;;2.33;1.50;;;;;;;15.84;57.70;97371.50;1710757;83;20162;-76
2021/09/20 10:09:20;;;;;;;1.85;1.60;;;;;;;15.88;57.54;97371.29;1695442;84;21346;-77
2021/09/20 10:11:48;;;;;;;1.52;1.35;;;;;;;15.72;55.90;97364.22;1721008;82;21050;-77
2021/09/20 10:14:17;;;;;;;3.02;1.90;;;;;;;15.67;57.54;97364.52;1724244;83;21035;-78
2021/09/20 10:16:49;;;;;;;1.90;1.60;;;;;;;15.63;56.22;97380.33;1724576;83;21416;-77
2021/09/20 10:19:17;;;;;;;1.90;1.62;;;;;;;15.43;55.63;97385.06;1724205;83;21533;-77
2021/09/20 10:21:43;;;;;;;4.20;2.60;;;;;;;15.26;54.67;97383.84;1724339;83;21401;-77
2021/09/20 10:24:10;;;;;;;4.17;2.60;;;;;;;15.24;55.32;97390.60;1725578;82;21408;-76
2021/09/20 10:26:37;;;;;;;5.90;3.22;;;;;;;15.16;55.41;97388.38;1734661;82;21031;-77
2021/09/20 10:29:05;;;;;;;6.22;3.70;;;;;;;15.11;55.84;97402.47;1753987;82;21726;-77
2021/09/20 10:31:36;;;;;;;5.30;2.80;;;;;;;14.91;55.62;97398.30;1752012;82;20975;-77
2021/09/20 10:34:24;;;;;;;2.92;1.87;;;;;;;14.92;56.37;97405.34;1750749;81;21411;-78
2021/09/20 10:37:14;;;;;;;2.90;1.60;;;;;;;14.89;56.23;97409.05;1724095;83;21070;-78
2021/09/20 10:39:53;;;;;;;1.70;1.40;;;;;;;14.86;56.61;97401.20;1682275;84;21000;-79
2021/09/20 10:42:48;;;;;;;2.45;1.67;;;;;;;14.87;56.89;97394.91;1715690;82;21432;-78
2021/09/20 10:45:52;;;;;;;2.80;1.90;;;;;;;14.91;57.02;97391.12;1742989;82;21011;-77
2021/09/20 10:48:33;;;;;;;2.17;1.40;;;;;;;14.91;55.97;97396.96;1738840;82;20992;-78
2021/09/20 10:51:23;;;;;;;1.75;1.50;;;;;;;14.89;56.37;97406.38;1712534;82;20988;-79
2021/09/20 10:54:11;;;;;;;3.05;1.57;;;;;;;14.83;56.43;97403.20;1752950;81;21375;-80
2021/09/20 10:56:39;;;;;;;1.82;1.40;;;;;;;14.75;56.82;97399.14;1723135;82;21444;-79
2021/09/20 10:59:11;;;;;;;2.12;1.52;;;;;;;14.77;56.73;97394.59;1738821;80;21029;-79
2021/09/20 11:01:40;;;;;;;1.72;1.40;;;;;;;14.78;55.78;97398.10;1750951;81;20999;-77
2021/09/20 11:04:19;;;;;;;2.80;1.15;;;;;;;14.75;56.81;97395.59;1726858;82;20994;-76
2021/09/20 11:07:06;;;;;;;1.72;1.42;;;;;;;14.81;56.86;97397.07;1744000;82;21505;-76
2021/09/20 11:09:46;;;;;;;2.62;1.45;;;;;;;14.85;57.19;97402.16;1744294;82;21030;-76
2021/09/20 11:12:18;;;;;;;1.75;1.47;;;;;;;14.90;57.39;97405.42;1757996;81;20949;-77
2021/09/20 11:14:50;;;;;;;1.52;1.30;;;;;;;14.88;57.23;97403.80;1762454;81;20977;-77
2021/09/20 11:17:22;;;;;;;1.40;1.30;;;;;;;14.84;57.71;97395.58;1748186;81;21087;-78
2021/09/20 11:19:55;;;;;;;1.72;1.30;;;;;;;14.81;57.95;97391.27;1739653;81;21088;-77
2021/09/20 11:22:26;;;;;;;4.78;1.57;;;;;;;14.80;57.67;97386.02;1727389;81;21477;-77
2021/09/20 11:25:04;;;;;;;1.92;1.50;;;;;;;14.73;58.27;97382.34;1712660;81;20968;-77
2021/09/20 11:27:46;;;;;;;4.35;1.75;;;;;;;14.69;59.38;97378.61;1727098;83;20998;-77
2021/09/20 11:30:25;;;;;;;2.20;1.85;;;;;;;14.51;60.72;97374.69;1735468;80;21468;-78
2021/09/20 11:33:02;;;;;;;2.83;1.60;;;;;;;14.46;60.78;97382.08;1736002;81;21443;-77
2021/09/20 11:35:31;;;;;;;2.55;1.60;;;;;;;14.32;61.29;97386.36;1750087;81;20990;-77
2021/09/20 11:38:02;;;;;;;17.17;11.20;;;;;;;14.30;61.34;97393.59;1757837;81;22234;-77
2021/09/20 11:40:32;;;;;;;3.20;2.17;;;;;;;14.28;60.87;97390.62;1755517;81;21403;-77
2021/09/20 11:43:04;;;;;;;3.20;1.85;;;;;;;14.15;60.53;97393.09;1758077;81;20994;-77